Terminal Aerodrome Forecast
Issued by NWS Austin/San Antonio, TX

Home | Current Version | Previous Version | Text Only | Print | Product List | Glossary On
Versions: 1 2 3 4 5 6 7 8 9 10 11 12 13 14 15
000
FTUS44 KEWX 191720
TAFDRT
TAF
KDRT 191720Z 1918/2018 13012KT P6SM BKN250
     FM200800 12009KT P6SM OVC015
     FM201200 12008KT 6SM BR OVC009
     FM201600 13010KT P6SM BKN015=

USA.gov is the U.S. government's official web portal to all federal, state and local government web resources and services.